LTBI Airport Information

Runway Information
Runway 09 Length 10006 ft width 150 ft
Elevation 2581 ft Threshold 0 ft Heading 90
Runway 27 Length 10006 ft Width 150 ft
Elevation 2570 ft Threshold 0 ft Heading 270
Airport Frequencies
Type APP Name APP Frequency 122.1 MHZ
Type ATIS Name ATIS Frequency 122.425 MHZ
Type GND Name GND Frequency 121.95 MHZ
Type TWR Name TWR Frequency 122.1 MHZ
Airport Navaids
Type TACAN Name Eskisehir Frequency 114400 KHZ
Airport Weather Information & NOTAM
ADDS - METARS form results

(2218 UTC 19 September 2018)
Data provider http://aviationweather.gov/metar/data/
 
Forecast for: LTBI (ESKISEHIR (TUR-A, TR)
Text: TAF LTBI 191340Z 1915/1924 VRB02KT CAVOK
Forecast period: 1500 UTC 19 September 2018 to 0000 UTC 20 September 2018
Forecast type: FROM: standard forecast or significant change
Winds: variable direction winds at 2 MPH (2 knots; 1.0 m/s)
Visibility: 6 or more miles 10+ km)
Ceiling: unknown
Clouds: missing
Weather: NSW  (no significant weather)